sensor_id;sensor_type;location;lat;lon;timestamp;P1;durP1;ratioP1;P2;durP2;ratioP2
2462;SDS011;1243;54.298;10.172;2023-12-20T00:01:21;10.00;;;2.40;;
2462;SDS011;1243;54.298;10.172;2023-12-20T00:03:47;11.60;;;3.37;;
2462;SDS011;1243;54.298;10.172;2023-12-20T00:06:13;7.83;;;3.00;;
2462;SDS011;1243;54.298;10.172;2023-12-20T00:08:38;14.37;;;3.60;;
2462;SDS011;1243;54.298;10.172;2023-12-20T00:11:04;7.27;;;4.50;;
2462;SDS011;1243;54.298;10.172;2023-12-20T00:13:30;4.80;;;2.70;;
2462;SDS011;1243;54.298;10.172;2023-12-20T00:15:56;10.73;;;3.17;;
2462;SDS011;1243;54.298;10.172;2023-12-20T00:18:21;10.43;;;3.40;;
2462;SDS011;1243;54.298;10.172;2023-12-20T00:20:48;11.70;;;3.80;;
2462;SDS011;1243;54.298;10.172;2023-12-20T00:23:14;11.77;;;3.73;;
2462;SDS011;1243;54.298;10.172;2023-12-20T00:25:40;9.70;;;2.70;;
2462;SDS011;1243;54.298;10.172;2023-12-20T00:28:05;11.83;;;3.40;;
2462;SDS011;1243;54.298;10.172;2023-12-20T00:30:31;17.53;;;3.60;;
2462;SDS011;1243;54.298;10.172;2023-12-20T00:32:57;8.03;;;3.47;;
2462;SDS011;1243;54.298;10.172;2023-12-20T00:35:23;11.70;;;3.03;;
2462;SDS011;1243;54.298;10.172;2023-12-20T00:37:49;10.53;;;3.20;;
2462;SDS011;1243;54.298;10.172;2023-12-20T00:40:15;8.93;;;3.60;;
2462;SDS011;1243;54.298;10.172;2023-12-20T00:42:40;16.20;;;4.97;;
2462;SDS011;1243;54.298;10.172;2023-12-20T00:45:06;11.93;;;3.37;;
2462;SDS011;1243;54.298;10.172;2023-12-20T00:47:32;8.30;;;3.70;;
2462;SDS011;1243;54.298;10.172;2023-12-20T00:49:58;13.00;;;3.40;;
2462;SDS011;1243;54.298;10.172;2023-12-20T00:52:24;11.77;;;4.30;;
2462;SDS011;1243;54.298;10.172;2023-12-20T00:54:50;13.07;;;2.83;;
2462;SDS011;1243;54.298;10.172;2023-12-20T00:57:16;10.13;;;3.00;;
2462;SDS011;1243;54.298;10.172;2023-12-20T00:59:41;28.00;;;3.60;;
2462;SDS011;1243;54.298;10.172;2023-12-20T01:02:07;8.83;;;2.67;;
2462;SDS011;1243;54.298;10.172;2023-12-20T01:04:33;10.80;;;3.77;;
2462;SDS011;1243;54.298;10.172;2023-12-20T01:06:59;7.30;;;2.97;;
2462;SDS011;1243;54.298;10.172;2023-12-20T01:09:25;11.53;;;2.80;;
2462;SDS011;1243;54.298;10.172;2023-12-20T01:11:53;20.10;;;3.50;;
2462;SDS011;1243;54.298;10.172;2023-12-20T01:14:19;13.20;;;3.67;;
2462;SDS011;1243;54.298;10.172;2023-12-20T01:16:45;12.90;;;3.30;;
2462;SDS011;1243;54.298;10.172;2023-12-20T01:19:11;7.60;;;3.10;;
2462;SDS011;1243;54.298;10.172;2023-12-20T01:21:38;9.30;;;3.60;;
2462;SDS011;1243;54.298;10.172;2023-12-20T01:24:04;23.90;;;4.40;;
2462;SDS011;1243;54.298;10.172;2023-12-20T01:26:29;15.30;;;3.47;;
2462;SDS011;1243;54.298;10.172;2023-12-20T01:28:55;16.13;;;4.20;;
2462;SDS011;1243;54.298;10.172;2023-12-20T01:31:21;10.33;;;3.50;;
2462;SDS011;1243;54.298;10.172;2023-12-20T01:33:46;10.10;;;3.43;;
2462;SDS011;1243;54.298;10.172;2023-12-20T01:36:12;14.73;;;3.57;;
2462;SDS011;1243;54.298;10.172;2023-12-20T01:38:38;12.20;;;4.53;;
2462;SDS011;1243;54.298;10.172;2023-12-20T01:41:04;21.73;;;3.43;;
2462;SDS011;1243;54.298;10.172;2023-12-20T01:43:29;10.33;;;3.73;;
2462;SDS011;1243;54.298;10.172;2023-12-20T01:45:55;19.60;;;3.23;;
2462;SDS011;1243;54.298;10.172;2023-12-20T01:48:22;16.43;;;3.30;;
2462;SDS011;1243;54.298;10.172;2023-12-20T01:50:49;9.53;;;2.73;;
2462;SDS011;1243;54.298;10.172;2023-12-20T01:53:16;11.20;;;2.60;;
2462;SDS011;1243;54.298;10.172;2023-12-20T01:55:43;24.13;;;3.83;;
2462;SDS011;1243;54.298;10.172;2023-12-20T01:58:10;11.60;;;3.50;;
2462;SDS011;1243;54.298;10.172;2023-12-20T02:00:37;15.20;;;4.43;;
2462;SDS011;1243;54.298;10.172;2023-12-20T02:03:03;11.90;;;3.80;;
2462;SDS011;1243;54.298;10.172;2023-12-20T02:05:30;8.17;;;4.07;;
2462;SDS011;1243;54.298;10.172;2023-12-20T02:07:56;6.57;;;3.10;;
2462;SDS011;1243;54.298;10.172;2023-12-20T02:10:22;11.87;;;4.40;;
2462;SDS011;1243;54.298;10.172;2023-12-20T02:12:49;8.60;;;3.27;;
2462;SDS011;1243;54.298;10.172;2023-12-20T02:15:14;12.77;;;3.10;;
2462;SDS011;1243;54.298;10.172;2023-12-20T02:17:40;14.43;;;3.27;;
2462;SDS011;1243;54.298;10.172;2023-12-20T02:20:06;13.57;;;3.80;;
2462;SDS011;1243;54.298;10.172;2023-12-20T02:22:32;11.90;;;3.30;;
2462;SDS011;1243;54.298;10.172;2023-12-20T02:24:58;8.17;;;3.00;;
2462;SDS011;1243;54.298;10.172;2023-12-20T02:27:23;6.77;;;3.20;;
2462;SDS011;1243;54.298;10.172;2023-12-20T02:29:49;8.50;;;2.77;;
2462;SDS011;1243;54.298;10.172;2023-12-20T02:32:16;10.17;;;3.20;;
2462;SDS011;1243;54.298;10.172;2023-12-20T02:34:42;7.70;;;3.00;;
2462;SDS011;1243;54.298;10.172;2023-12-20T02:37:08;12.63;;;3.17;;
2462;SDS011;1243;54.298;10.172;2023-12-20T02:39:34;5.57;;;2.80;;
2462;SDS011;1243;54.298;10.172;2023-12-20T02:42:00;13.73;;;3.77;;
2462;SDS011;1243;54.298;10.172;2023-12-20T02:44:25;7.10;;;3.27;;
2462;SDS011;1243;54.298;10.172;2023-12-20T02:46:51;7.30;;;3.00;;
2462;SDS011;1243;54.298;10.172;2023-12-20T02:49:17;3.07;;;2.53;;
2462;SDS011;1243;54.298;10.172;2023-12-20T02:51:43;16.50;;;3.30;;
2462;SDS011;1243;54.298;10.172;2023-12-20T02:54:08;5.27;;;2.53;;
2462;SDS011;1243;54.298;10.172;2023-12-20T02:56:34;5.20;;;2.50;;
2462;SDS011;1243;54.298;10.172;2023-12-20T02:59:00;3.87;;;2.30;;
2462;SDS011;1243;54.298;10.172;2023-12-20T03:01:26;16.83;;;3.63;;
2462;SDS011;1243;54.298;10.172;2023-12-20T03:03:53;13.93;;;3.50;;
2462;SDS011;1243;54.298;10.172;2023-12-20T03:06:18;3.80;;;2.53;;
2462;SDS011;1243;54.298;10.172;2023-12-20T03:08:44;4.40;;;2.60;;
2462;SDS011;1243;54.298;10.172;2023-12-20T03:11:10;9.50;;;3.40;;
2462;SDS011;1243;54.298;10.172;2023-12-20T03:13:36;11.87;;;2.97;;
2462;SDS011;1243;54.298;10.172;2023-12-20T03:16:08;7.27;;;4.10;;
2462;SDS011;1243;54.298;10.172;2023-12-20T03:18:37;8.13;;;3.10;;
2462;SDS011;1243;54.298;10.172;2023-12-20T03:21:06;10.67;;;3.03;;
2462;SDS011;1243;54.298;10.172;2023-12-20T03:23:31;13.63;;;2.97;;
2462;SDS011;1243;54.298;10.172;2023-12-20T03:25:58;7.30;;;3.17;;
2462;SDS011;1243;54.298;10.172;2023-12-20T03:28:25;6.90;;;3.40;;
2462;SDS011;1243;54.298;10.172;2023-12-20T03:30:51;7.43;;;3.43;;
2462;SDS011;1243;54.298;10.172;2023-12-20T03:33:17;9.27;;;3.50;;
2462;SDS011;1243;54.298;10.172;2023-12-20T03:35:43;11.33;;;4.20;;
2462;SDS011;1243;54.298;10.172;2023-12-20T03:38:08;6.13;;;3.30;;
2462;SDS011;1243;54.298;10.172;2023-12-20T03:40:34;7.40;;;4.00;;
2462;SDS011;1243;54.298;10.172;2023-12-20T03:43:00;7.07;;;3.57;;
2462;SDS011;1243;54.298;10.172;2023-12-20T03:45:26;7.73;;;3.00;;
2462;SDS011;1243;54.298;10.172;2023-12-20T03:47:51;12.73;;;3.80;;
2462;SDS011;1243;54.298;10.172;2023-12-20T03:50:24;9.33;;;3.07;;
2462;SDS011;1243;54.298;10.172;2023-12-20T03:52:51;7.80;;;3.00;;
2462;SDS011;1243;54.298;10.172;2023-12-20T03:55:17;15.80;;;3.77;;
2462;SDS011;1243;54.298;10.172;2023-12-20T03:57:43;14.67;;;3.07;;
2462;SDS011;1243;54.298;10.172;2023-12-20T04:00:09;8.03;;;2.50;;
2462;SDS011;1243;54.298;10.172;2023-12-20T04:02:37;9.80;;;3.30;;
2462;SDS011;1243;54.298;10.172;2023-12-20T04:05:04;10.73;;;3.03;;
2462;SDS011;1243;54.298;10.172;2023-12-20T04:07:30;10.93;;;3.60;;
2462;SDS011;1243;54.298;10.172;2023-12-20T04:09:56;7.67;;;2.80;;
2462;SDS011;1243;54.298;10.172;2023-12-20T04:12:21;3.30;;;2.43;;
2462;SDS011;1243;54.298;10.172;2023-12-20T04:14:47;13.17;;;3.30;;
2462;SDS011;1243;54.298;10.172;2023-12-20T04:17:13;9.60;;;2.57;;
2462;SDS011;1243;54.298;10.172;2023-12-20T04:19:41;6.43;;;2.93;;
2462;SDS011;1243;54.298;10.172;2023-12-20T04:22:07;9.70;;;3.60;;
2462;SDS011;1243;54.298;10.172;2023-12-20T04:24:32;15.83;;;4.30;;
2462;SDS011;1243;54.298;10.172;2023-12-20T04:26:58;7.40;;;3.17;;
2462;SDS011;1243;54.298;10.172;2023-12-20T04:29:24;8.87;;;3.63;;
2462;SDS011;1243;54.298;10.172;2023-12-20T04:31:49;20.40;;;4.20;;
2462;SDS011;1243;54.298;10.172;2023-12-20T04:34:16;6.43;;;2.53;;
2462;SDS011;1243;54.298;10.172;2023-12-20T04:36:42;4.43;;;2.13;;
2462;SDS011;1243;54.298;10.172;2023-12-20T04:39:08;8.13;;;2.83;;
2462;SDS011;1243;54.298;10.172;2023-12-20T04:41:34;3.60;;;2.50;;
2462;SDS011;1243;54.298;10.172;2023-12-20T04:44:00;3.33;;;2.17;;
2462;SDS011;1243;54.298;10.172;2023-12-20T04:46:26;10.03;;;3.00;;
2462;SDS011;1243;54.298;10.172;2023-12-20T04:48:52;3.70;;;2.47;;
2462;SDS011;1243;54.298;10.172;2023-12-20T04:51:17;3.10;;;2.20;;
2462;SDS011;1243;54.298;10.172;2023-12-20T04:53:43;5.83;;;2.70;;
2462;SDS011;1243;54.298;10.172;2023-12-20T04:56:09;3.60;;;2.23;;
2462;SDS011;1243;54.298;10.172;2023-12-20T04:58:34;11.00;;;2.87;;
2462;SDS011;1243;54.298;10.172;2023-12-20T05:01:00;10.20;;;3.33;;
2462;SDS011;1243;54.298;10.172;2023-12-20T05:03:26;6.90;;;3.30;;
2462;SDS011;1243;54.298;10.172;2023-12-20T05:05:52;16.83;;;3.60;;
2462;SDS011;1243;54.298;10.172;2023-12-20T05:08:18;11.53;;;3.43;;
2462;SDS011;1243;54.298;10.172;2023-12-20T05:10:44;14.07;;;4.20;;
2462;SDS011;1243;54.298;10.172;2023-12-20T05:13:10;9.53;;;2.83;;
2462;SDS011;1243;54.298;10.172;2023-12-20T05:15:36;8.03;;;2.90;;
2462;SDS011;1243;54.298;10.172;2023-12-20T05:18:01;11.50;;;3.30;;
2462;SDS011;1243;54.298;10.172;2023-12-20T05:20:27;10.07;;;3.47;;
2462;SDS011;1243;54.298;10.172;2023-12-20T05:22:53;9.80;;;3.87;;
2462;SDS011;1243;54.298;10.172;2023-12-20T05:25:18;19.60;;;5.13;;
2462;SDS011;1243;54.298;10.172;2023-12-20T05:27:44;8.43;;;3.90;;
2462;SDS011;1243;54.298;10.172;2023-12-20T05:30:10;16.73;;;4.03;;
2462;SDS011;1243;54.298;10.172;2023-12-20T05:32:36;13.83;;;4.00;;
2462;SDS011;1243;54.298;10.172;2023-12-20T05:35:02;8.60;;;3.50;;
2462;SDS011;1243;54.298;10.172;2023-12-20T05:37:28;7.80;;;2.93;;
2462;SDS011;1243;54.298;10.172;2023-12-20T05:39:54;6.93;;;3.30;;
2462;SDS011;1243;54.298;10.172;2023-12-20T05:42:19;8.63;;;3.10;;
2462;SDS011;1243;54.298;10.172;2023-12-20T05:44:45;6.50;;;3.33;;
2462;SDS011;1243;54.298;10.172;2023-12-20T05:47:10;14.03;;;3.30;;
2462;SDS011;1243;54.298;10.172;2023-12-20T05:49:36;14.80;;;3.23;;
2462;SDS011;1243;54.298;10.172;2023-12-20T05:52:02;16.63;;;3.90;;
2462;SDS011;1243;54.298;10.172;2023-12-20T05:54:28;6.57;;;2.90;;
2462;SDS011;1243;54.298;10.172;2023-12-20T05:56:53;15.80;;;5.50;;
2462;SDS011;1243;54.298;10.172;2023-12-20T05:59:19;6.00;;;4.00;;
2462;SDS011;1243;54.298;10.172;2023-12-20T06:01:45;12.20;;;4.90;;
2462;SDS011;1243;54.298;10.172;2023-12-20T06:04:10;13.67;;;6.30;;
2462;SDS011;1243;54.298;10.172;2023-12-20T06:06:42;10.90;;;3.47;;
2462;SDS011;1243;54.298;10.172;2023-12-20T06:09:08;16.37;;;3.80;;
2462;SDS011;1243;54.298;10.172;2023-12-20T06:11:34;6.47;;;3.87;;
2462;SDS011;1243;54.298;10.172;2023-12-20T06:14:00;14.40;;;4.20;;
2462;SDS011;1243;54.298;10.172;2023-12-20T06:16:25;11.93;;;5.50;;
2462;SDS011;1243;54.298;10.172;2023-12-20T06:18:51;7.83;;;4.23;;
2462;SDS011;1243;54.298;10.172;2023-12-20T06:21:17;13.33;;;4.57;;
2462;SDS011;1243;54.298;10.172;2023-12-20T06:23:43;13.03;;;4.80;;
2462;SDS011;1243;54.298;10.172;2023-12-20T06:26:08;18.47;;;3.83;;
2462;SDS011;1243;54.298;10.172;2023-12-20T06:28:34;11.73;;;4.50;;
2462;SDS011;1243;54.298;10.172;2023-12-20T06:31:00;16.00;;;4.40;;
2462;SDS011;1243;54.298;10.172;2023-12-20T06:33:25;15.70;;;4.63;;
2462;SDS011;1243;54.298;10.172;2023-12-20T06:35:51;11.33;;;3.90;;
2462;SDS011;1243;54.298;10.172;2023-12-20T06:38:17;14.83;;;4.60;;
2462;SDS011;1243;54.298;10.172;2023-12-20T06:40:44;15.23;;;4.87;;
2462;SDS011;1243;54.298;10.172;2023-12-20T06:43:09;17.57;;;3.93;;
2462;SDS011;1243;54.298;10.172;2023-12-20T06:45:35;15.13;;;4.30;;
2462;SDS011;1243;54.298;10.172;2023-12-20T06:48:01;27.03;;;4.13;;
2462;SDS011;1243;54.298;10.172;2023-12-20T06:50:27;9.43;;;3.70;;
2462;SDS011;1243;54.298;10.172;2023-12-20T06:52:52;15.13;;;4.50;;
2462;SDS011;1243;54.298;10.172;2023-12-20T06:55:18;13.70;;;5.50;;
2462;SDS011;1243;54.298;10.172;2023-12-20T06:57:44;23.70;;;4.80;;
2462;SDS011;1243;54.298;10.172;2023-12-20T07:00:10;9.27;;;4.07;;
2462;SDS011;1243;54.298;10.172;2023-12-20T07:02:37;13.53;;;3.67;;
2462;SDS011;1243;54.298;10.172;2023-12-20T07:05:02;16.63;;;4.00;;
2462;SDS011;1243;54.298;10.172;2023-12-20T07:07:29;15.83;;;3.80;;
2462;SDS011;1243;54.298;10.172;2023-12-20T07:09:55;15.13;;;5.20;;
2462;SDS011;1243;54.298;10.172;2023-12-20T07:12:21;7.20;;;3.10;;
2462;SDS011;1243;54.298;10.172;2023-12-20T07:14:49;13.43;;;4.73;;
2462;SDS011;1243;54.298;10.172;2023-12-20T07:17:15;19.30;;;4.30;;
2462;SDS011;1243;54.298;10.172;2023-12-20T07:19:41;17.30;;;4.97;;
2462;SDS011;1243;54.298;10.172;2023-12-20T07:22:07;10.80;;;3.50;;
2462;SDS011;1243;54.298;10.172;2023-12-20T07:24:32;13.87;;;4.23;;
2462;SDS011;1243;54.298;10.172;2023-12-20T07:27:01;19.67;;;5.40;;
2462;SDS011;1243;54.298;10.172;2023-12-20T07:29:27;9.40;;;4.63;;
2462;SDS011;1243;54.298;10.172;2023-12-20T07:31:54;14.43;;;4.67;;
2462;SDS011;1243;54.298;10.172;2023-12-20T07:34:20;12.60;;;5.50;;
2462;SDS011;1243;54.298;10.172;2023-12-20T07:36:46;26.90;;;5.00;;
2462;SDS011;1243;54.298;10.172;2023-12-20T07:39:12;10.47;;;4.20;;
2462;SDS011;1243;54.298;10.172;2023-12-20T07:41:38;10.90;;;3.60;;
2462;SDS011;1243;54.298;10.172;2023-12-20T07:44:04;14.97;;;3.60;;
2462;SDS011;1243;54.298;10.172;2023-12-20T07:46:30;9.80;;;3.70;;
2462;SDS011;1243;54.298;10.172;2023-12-20T07:48:55;12.83;;;4.37;;
2462;SDS011;1243;54.298;10.172;2023-12-20T07:51:21;16.67;;;4.93;;
2462;SDS011;1243;54.298;10.172;2023-12-20T07:53:47;15.17;;;4.00;;
2462;SDS011;1243;54.298;10.172;2023-12-20T07:56:13;25.37;;;4.63;;
2462;SDS011;1243;54.298;10.172;2023-12-20T07:58:40;6.33;;;3.70;;
2462;SDS011;1243;54.298;10.172;2023-12-20T08:01:06;13.97;;;3.73;;
2462;SDS011;1243;54.298;10.172;2023-12-20T08:03:31;15.43;;;4.23;;
2462;SDS011;1243;54.298;10.172;2023-12-20T08:05:57;8.83;;;4.10;;
2462;SDS011;1243;54.298;10.172;2023-12-20T08:08:24;16.50;;;4.50;;
2462;SDS011;1243;54.298;10.172;2023-12-20T08:10:50;9.80;;;4.57;;
2462;SDS011;1243;54.298;10.172;2023-12-20T08:13:16;10.77;;;3.80;;
2462;SDS011;1243;54.298;10.172;2023-12-20T08:15:41;11.27;;;2.73;;
2462;SDS011;1243;54.298;10.172;2023-12-20T08:18:07;11.67;;;4.40;;
2462;SDS011;1243;54.298;10.172;2023-12-20T08:20:33;7.37;;;2.63;;
2462;SDS011;1243;54.298;10.172;2023-12-20T08:22:58;8.50;;;2.97;;
2462;SDS011;1243;54.298;10.172;2023-12-20T08:25:24;4.30;;;2.67;;
2462;SDS011;1243;54.298;10.172;2023-12-20T08:27:49;5.90;;;3.40;;
2462;SDS011;1243;54.298;10.172;2023-12-20T08:30:15;4.13;;;2.67;;
2462;SDS011;1243;54.298;10.172;2023-12-20T08:32:45;4.80;;;2.80;;
2462;SDS011;1243;54.298;10.172;2023-12-20T08:35:11;5.00;;;2.73;;
2462;SDS011;1243;54.298;10.172;2023-12-20T08:37:37;8.93;;;3.27;;
2462;SDS011;1243;54.298;10.172;2023-12-20T08:40:02;3.20;;;2.60;;
2462;SDS011;1243;54.298;10.172;2023-12-20T08:42:28;12.13;;;3.37;;
2462;SDS011;1243;54.298;10.172;2023-12-20T08:44:56;3.17;;;2.33;;
2462;SDS011;1243;54.298;10.172;2023-12-20T08:47:23;3.97;;;2.10;;
2462;SDS011;1243;54.298;10.172;2023-12-20T08:49:49;5.97;;;3.03;;
2462;SDS011;1243;54.298;10.172;2023-12-20T08:52:15;3.67;;;2.10;;
2462;SDS011;1243;54.298;10.172;2023-12-20T08:54:41;5.83;;;3.23;;
2462;SDS011;1243;54.298;10.172;2023-12-20T08:57:06;6.23;;;2.20;;
2462;SDS011;1243;54.298;10.172;2023-12-20T08:59:32;2.27;;;2.10;;
2462;SDS011;1243;54.298;10.172;2023-12-20T09:01:58;3.47;;;2.10;;
2462;SDS011;1243;54.298;10.172;2023-12-20T09:04:24;2.60;;;2.00;;
2462;SDS011;1243;54.298;10.172;2023-12-20T09:06:50;4.57;;;2.30;;
2462;SDS011;1243;54.298;10.172;2023-12-20T09:09:16;6.30;;;4.00;;
2462;SDS011;1243;54.298;10.172;2023-12-20T09:11:42;2.30;;;1.70;;
2462;SDS011;1243;54.298;10.172;2023-12-20T09:14:07;4.47;;;2.00;;
2462;SDS011;1243;54.298;10.172;2023-12-20T09:16:34;2.17;;;2.00;;
2462;SDS011;1243;54.298;10.172;2023-12-20T09:19:00;2.10;;;1.90;;
2462;SDS011;1243;54.298;10.172;2023-12-20T09:21:25;3.77;;;2.00;;
2462;SDS011;1243;54.298;10.172;2023-12-20T09:23:51;3.90;;;2.00;;
2462;SDS011;1243;54.298;10.172;2023-12-20T09:26:17;2.37;;;2.10;;
2462;SDS011;1243;54.298;10.172;2023-12-20T09:28:43;2.03;;;1.60;;
2462;SDS011;1243;54.298;10.172;2023-12-20T09:31:10;6.77;;;2.20;;
2462;SDS011;1243;54.298;10.172;2023-12-20T09:33:35;3.10;;;1.90;;
2462;SDS011;1243;54.298;10.172;2023-12-20T09:36:01;1.60;;;1.50;;
2462;SDS011;1243;54.298;10.172;2023-12-20T09:38:27;2.23;;;1.77;;
2462;SDS011;1243;54.298;10.172;2023-12-20T09:40:52;7.13;;;2.00;;
2462;SDS011;1243;54.298;10.172;2023-12-20T09:43:20;2.60;;;2.23;;
2462;SDS011;1243;54.298;10.172;2023-12-20T09:45:48;3.97;;;2.30;;
2462;SDS011;1243;54.298;10.172;2023-12-20T09:48:18;1.93;;;1.67;;
2462;SDS011;1243;54.298;10.172;2023-12-20T09:50:45;8.00;;;1.63;;
2462;SDS011;1243;54.298;10.172;2023-12-20T09:53:11;12.20;;;2.77;;
2462;SDS011;1243;54.298;10.172;2023-12-20T09:55:41;4.60;;;2.20;;
2462;SDS011;1243;54.298;10.172;2023-12-20T09:58:07;9.67;;;2.30;;
2462;SDS011;1243;54.298;10.172;2023-12-20T10:00:34;2.30;;;2.03;;
2462;SDS011;1243;54.298;10.172;2023-12-20T10:03:00;10.23;;;3.00;;
2462;SDS011;1243;54.298;10.172;2023-12-20T10:05:30;7.00;;;2.23;;
2462;SDS011;1243;54.298;10.172;2023-12-20T10:07:57;2.67;;;2.47;;
2462;SDS011;1243;54.298;10.172;2023-12-20T10:10:24;13.33;;;2.03;;
2462;SDS011;1243;54.298;10.172;2023-12-20T10:13:06;3.87;;;1.70;;
2462;SDS011;1243;54.298;10.172;2023-12-20T10:15:34;4.43;;;2.20;;
2462;SDS011;1243;54.298;10.172;2023-12-20T10:18:03;6.10;;;2.70;;
2462;SDS011;1243;54.298;10.172;2023-12-20T10:20:30;3.00;;;2.37;;
2462;SDS011;1243;54.298;10.172;2023-12-20T10:22:57;5.70;;;3.30;;
2462;SDS011;1243;54.298;10.172;2023-12-20T10:25:23;9.03;;;3.03;;
2462;SDS011;1243;54.298;10.172;2023-12-20T10:27:50;11.10;;;3.03;;
2462;SDS011;1243;54.298;10.172;2023-12-20T10:30:33;11.57;;;2.87;;
2462;SDS011;1243;54.298;10.172;2023-12-20T10:32:58;8.13;;;3.13;;
2462;SDS011;1243;54.298;10.172;2023-12-20T10:35:24;2.60;;;2.37;;
2462;SDS011;1243;54.298;10.172;2023-12-20T10:37:50;7.60;;;2.20;;
2462;SDS011;1243;54.298;10.172;2023-12-20T10:40:20;8.13;;;2.67;;
2462;SDS011;1243;54.298;10.172;2023-12-20T10:42:46;17.27;;;3.00;;
2462;SDS011;1243;54.298;10.172;2023-12-20T10:45:12;3.10;;;1.90;;
2462;SDS011;1243;54.298;10.172;2023-12-20T10:47:38;3.17;;;1.83;;
2462;SDS011;1243;54.298;10.172;2023-12-20T10:50:05;8.73;;;2.50;;
2462;SDS011;1243;54.298;10.172;2023-12-20T10:52:32;10.37;;;3.40;;
2462;SDS011;1243;54.298;10.172;2023-12-20T10:55:00;8.33;;;3.30;;
2462;SDS011;1243;54.298;10.172;2023-12-20T10:57:26;5.27;;;3.13;;
2462;SDS011;1243;54.298;10.172;2023-12-20T10:59:53;11.23;;;3.17;;
2462;SDS011;1243;54.298;10.172;2023-12-20T11:02:19;3.67;;;2.97;;
2462;SDS011;1243;54.298;10.172;2023-12-20T11:04:54;15.63;;;3.27;;
2462;SDS011;1243;54.298;10.172;2023-12-20T11:10:08;11.53;;;2.77;;
2462;SDS011;1243;54.298;10.172;2023-12-20T11:12:44;11.00;;;2.50;;
2462;SDS011;1243;54.298;10.172;2023-12-20T11:15:16;10.07;;;4.60;;
2462;SDS011;1243;54.298;10.172;2023-12-20T11:17:44;4.00;;;2.40;;
2462;SDS011;1243;54.298;10.172;2023-12-20T11:20:11;3.60;;;2.60;;
2462;SDS011;1243;54.298;10.172;2023-12-20T11:22:37;2.93;;;2.00;;
2462;SDS011;1243;54.298;10.172;2023-12-20T11:25:07;8.30;;;2.70;;
2462;SDS011;1243;54.298;10.172;2023-12-20T11:27:36;6.47;;;2.50;;
2462;SDS011;1243;54.298;10.172;2023-12-20T11:30:06;8.20;;;2.43;;
2462;SDS011;1243;54.298;10.172;2023-12-20T11:32:34;5.17;;;2.33;;
2462;SDS011;1243;54.298;10.172;2023-12-20T11:35:01;5.03;;;2.37;;
2462;SDS011;1243;54.298;10.172;2023-12-20T11:37:43;6.60;;;1.90;;
2462;SDS011;1243;54.298;10.172;2023-12-20T11:40:13;5.43;;;2.23;;
2462;SDS011;1243;54.298;10.172;2023-12-20T11:42:48;3.33;;;2.30;;
2462;SDS011;1243;54.298;10.172;2023-12-20T11:45:15;10.00;;;3.20;;
2462;SDS011;1243;54.298;10.172;2023-12-20T11:47:47;8.20;;;2.97;;
2462;SDS011;1243;54.298;10.172;2023-12-20T11:50:19;7.30;;;2.60;;
2462;SDS011;1243;54.298;10.172;2023-12-20T11:52:46;7.83;;;5.10;;
2462;SDS011;1243;54.298;10.172;2023-12-20T11:55:12;6.80;;;3.07;;
2462;SDS011;1243;54.298;10.172;2023-12-20T11:57:38;11.93;;;3.40;;
2462;SDS011;1243;54.298;10.172;2023-12-20T12:00:05;7.53;;;3.93;;
2462;SDS011;1243;54.298;10.172;2023-12-20T12:02:31;10.27;;;3.50;;
2462;SDS011;1243;54.298;10.172;2023-12-20T12:04:57;10.07;;;3.77;;
2462;SDS011;1243;54.298;10.172;2023-12-20T12:07:24;11.87;;;3.20;;
2462;SDS011;1243;54.298;10.172;2023-12-20T12:09:50;11.20;;;3.10;;
2462;SDS011;1243;54.298;10.172;2023-12-20T12:12:16;9.80;;;2.90;;
2462;SDS011;1243;54.298;10.172;2023-12-20T12:14:44;12.17;;;3.60;;
2462;SDS011;1243;54.298;10.172;2023-12-20T12:17:13;15.77;;;4.17;;
2462;SDS011;1243;54.298;10.172;2023-12-20T12:19:40;7.97;;;3.33;;
2462;SDS011;1243;54.298;10.172;2023-12-20T12:22:10;17.63;;;3.83;;
2462;SDS011;1243;54.298;10.172;2023-12-20T12:27:11;11.50;;;6.23;;
2462;SDS011;1243;54.298;10.172;2023-12-20T12:29:38;10.40;;;3.23;;
2462;SDS011;1243;54.298;10.172;2023-12-20T12:32:07;12.00;;;3.80;;
2462;SDS011;1243;54.298;10.172;2023-12-20T12:34:34;15.70;;;3.93;;
2462;SDS011;1243;54.298;10.172;2023-12-20T12:37:00;10.87;;;2.83;;
2462;SDS011;1243;54.298;10.172;2023-12-20T12:39:26;5.13;;;4.33;;
2462;SDS011;1243;54.298;10.172;2023-12-20T12:41:53;6.00;;;4.03;;
2462;SDS011;1243;54.298;10.172;2023-12-20T12:44:18;13.83;;;4.43;;
2462;SDS011;1243;54.298;10.172;2023-12-20T12:46:45;4.60;;;2.43;;
2462;SDS011;1243;54.298;10.172;2023-12-20T12:49:12;5.77;;;3.90;;
2462;SDS011;1243;54.298;10.172;2023-12-20T12:51:38;11.93;;;3.37;;
2462;SDS011;1243;54.298;10.172;2023-12-20T12:54:03;8.13;;;4.33;;
2462;SDS011;1243;54.298;10.172;2023-12-20T12:56:29;7.27;;;3.57;;
2462;SDS011;1243;54.298;10.172;2023-12-20T12:58:55;10.37;;;4.13;;
2462;SDS011;1243;54.298;10.172;2023-12-20T13:01:21;13.90;;;4.20;;
2462;SDS011;1243;54.298;10.172;2023-12-20T13:03:47;15.20;;;6.43;;
2462;SDS011;1243;54.298;10.172;2023-12-20T13:06:12;14.57;;;4.27;;
2462;SDS011;1243;54.298;10.172;2023-12-20T13:08:38;10.67;;;4.27;;
2462;SDS011;1243;54.298;10.172;2023-12-20T13:11:04;10.00;;;3.77;;
2462;SDS011;1243;54.298;10.172;2023-12-20T13:13:30;18.23;;;5.37;;
2462;SDS011;1243;54.298;10.172;2023-12-20T13:15:56;23.53;;;5.13;;
2462;SDS011;1243;54.298;10.172;2023-12-20T13:18:22;8.23;;;2.70;;
2462;SDS011;1243;54.298;10.172;2023-12-20T13:20:48;13.67;;;4.70;;
2462;SDS011;1243;54.298;10.172;2023-12-20T13:23:14;23.63;;;5.33;;
2462;SDS011;1243;54.298;10.172;2023-12-20T13:25:40;10.93;;;5.20;;
2462;SDS011;1243;54.298;10.172;2023-12-20T13:28:06;18.13;;;4.40;;
2462;SDS011;1243;54.298;10.172;2023-12-20T13:30:33;14.40;;;5.33;;
2462;SDS011;1243;54.298;10.172;2023-12-20T13:32:59;12.50;;;5.00;;
2462;SDS011;1243;54.298;10.172;2023-12-20T13:35:25;9.87;;;5.40;;
2462;SDS011;1243;54.298;10.172;2023-12-20T13:37:50;9.30;;;4.40;;
2462;SDS011;1243;54.298;10.172;2023-12-20T13:40:16;14.70;;;5.37;;
2462;SDS011;1243;54.298;10.172;2023-12-20T13:42:43;19.20;;;5.67;;
2462;SDS011;1243;54.298;10.172;2023-12-20T13:45:08;8.03;;;4.63;;
2462;SDS011;1243;54.298;10.172;2023-12-20T13:47:34;23.33;;;5.70;;
2462;SDS011;1243;54.298;10.172;2023-12-20T13:50:00;14.97;;;5.90;;
2462;SDS011;1243;54.298;10.172;2023-12-20T13:52:28;13.37;;;7.13;;
2462;SDS011;1243;54.298;10.172;2023-12-20T13:54:53;19.30;;;6.00;;
2462;SDS011;1243;54.298;10.172;2023-12-20T13:57:19;14.60;;;5.97;;
2462;SDS011;1243;54.298;10.172;2023-12-20T13:59:45;10.07;;;5.30;;
2462;SDS011;1243;54.298;10.172;2023-12-20T14:02:10;9.43;;;5.60;;
2462;SDS011;1243;54.298;10.172;2023-12-20T14:04:36;9.40;;;6.00;;
2462;SDS011;1243;54.298;10.172;2023-12-20T14:07:04;14.63;;;5.20;;
2462;SDS011;1243;54.298;10.172;2023-12-20T14:09:30;13.90;;;4.87;;
2462;SDS011;1243;54.298;10.172;2023-12-20T14:11:55;15.83;;;6.43;;
2462;SDS011;1243;54.298;10.172;2023-12-20T14:14:21;7.97;;;5.90;;
2462;SDS011;1243;54.298;10.172;2023-12-20T14:16:47;8.00;;;5.50;;
2462;SDS011;1243;54.298;10.172;2023-12-20T14:19:12;12.70;;;5.23;;
2462;SDS011;1243;54.298;10.172;2023-12-20T14:21:38;10.97;;;5.20;;
2462;SDS011;1243;54.298;10.172;2023-12-20T14:24:04;14.73;;;4.80;;
2462;SDS011;1243;54.298;10.172;2023-12-20T14:26:30;8.60;;;4.97;;
2462;SDS011;1243;54.298;10.172;2023-12-20T14:28:56;19.17;;;5.80;;
2462;SDS011;1243;54.298;10.172;2023-12-20T14:31:22;16.27;;;6.43;;
2462;SDS011;1243;54.298;10.172;2023-12-20T14:33:50;10.67;;;5.80;;
2462;SDS011;1243;54.298;10.172;2023-12-20T14:36:18;9.47;;;5.43;;
2462;SDS011;1243;54.298;10.172;2023-12-20T14:38:45;19.10;;;6.83;;
2462;SDS011;1243;54.298;10.172;2023-12-20T14:41:12;15.00;;;6.13;;
2462;SDS011;1243;54.298;10.172;2023-12-20T14:43:37;8.03;;;5.60;;
2462;SDS011;1243;54.298;10.172;2023-12-20T14:46:03;15.83;;;6.40;;
2462;SDS011;1243;54.298;10.172;2023-12-20T14:48:30;10.40;;;5.00;;
2462;SDS011;1243;54.298;10.172;2023-12-20T14:50:57;11.63;;;5.80;;
2462;SDS011;1243;54.298;10.172;2023-12-20T14:53:24;5.60;;;4.77;;
2462;SDS011;1243;54.298;10.172;2023-12-20T14:55:50;9.23;;;4.97;;